sensor_id;sensor_type;location;lat;lon;timestamp;temperature;humidity
17172;DHT22;8701;50.150;8.756;2023-04-24T00:01:47;13.30;99.90
17172;DHT22;8701;50.150;8.756;2023-04-24T00:05:51;13.30;99.90
17172;DHT22;8701;50.150;8.756;2023-04-24T00:09:53;13.30;99.90
17172;DHT22;8701;50.150;8.756;2023-04-24T00:13:56;13.40;99.90
17172;DHT22;8701;50.150;8.756;2023-04-24T00:17:58;13.40;99.90
17172;DHT22;8701;50.150;8.756;2023-04-24T00:22:03;13.40;99.90
17172;DHT22;8701;50.150;8.756;2023-04-24T00:26:06;13.30;99.90
17172;DHT22;8701;50.150;8.756;2023-04-24T00:30:09;13.30;99.90
17172;DHT22;8701;50.150;8.756;2023-04-24T00:34:11;13.20;99.90
17172;DHT22;8701;50.150;8.756;2023-04-24T00:38:14;13.20;99.90
17172;DHT22;8701;50.150;8.756;2023-04-24T00:42:17;13.30;99.90
17172;DHT22;8701;50.150;8.756;2023-04-24T00:46:19;13.30;99.90
17172;DHT22;8701;50.150;8.756;2023-04-24T00:50:23;13.30;99.90
17172;DHT22;8701;50.150;8.756;2023-04-24T00:54:27;13.20;99.90
17172;DHT22;8701;50.150;8.756;2023-04-24T00:58:29;13.20;99.90
17172;DHT22;8701;50.150;8.756;2023-04-24T01:02:32;13.20;99.90
17172;DHT22;8701;50.150;8.756;2023-04-24T01:06:38;13.20;99.90
17172;DHT22;8701;50.150;8.756;2023-04-24T01:10:44;13.20;99.90
17172;DHT22;8701;50.150;8.756;2023-04-24T01:14:46;13.20;99.90
17172;DHT22;8701;50.150;8.756;2023-04-24T01:18:50;13.20;99.90
17172;DHT22;8701;50.150;8.756;2023-04-24T01:22:56;13.10;99.90
17172;DHT22;8701;50.150;8.756;2023-04-24T01:26:58;13.10;99.90
17172;DHT22;8701;50.150;8.756;2023-04-24T01:31:02;13.10;99.90
17172;DHT22;8701;50.150;8.756;2023-04-24T01:35:05;13.10;99.90
17172;DHT22;8701;50.150;8.756;2023-04-24T01:39:09;13.00;99.90
17172;DHT22;8701;50.150;8.756;2023-04-24T01:43:14;13.00;99.90
17172;DHT22;8701;50.150;8.756;2023-04-24T01:47:16;13.00;99.90
17172;DHT22;8701;50.150;8.756;2023-04-24T01:51:19;12.90;99.90
17172;DHT22;8701;50.150;8.756;2023-04-24T01:55:23;12.90;99.90
17172;DHT22;8701;50.150;8.756;2023-04-24T01:59:25;12.90;99.90
17172;DHT22;8701;50.150;8.756;2023-04-24T02:03:28;12.90;99.90
17172;DHT22;8701;50.150;8.756;2023-04-24T02:07:33;12.80;99.90
17172;DHT22;8701;50.150;8.756;2023-04-24T02:11:37;12.90;99.90
17172;DHT22;8701;50.150;8.756;2023-04-24T02:15:39;12.90;99.90
17172;DHT22;8701;50.150;8.756;2023-04-24T02:19:41;12.80;99.90
17172;DHT22;8701;50.150;8.756;2023-04-24T02:23:45;12.80;99.90
17172;DHT22;8701;50.150;8.756;2023-04-24T02:27:49;12.80;99.90
17172;DHT22;8701;50.150;8.756;2023-04-24T02:31:51;12.80;99.90
17172;DHT22;8701;50.150;8.756;2023-04-24T02:35:53;12.70;99.90
17172;DHT22;8701;50.150;8.756;2023-04-24T02:39:55;12.70;99.90
17172;DHT22;8701;50.150;8.756;2023-04-24T02:43:59;12.50;99.90
17172;DHT22;8701;50.150;8.756;2023-04-24T02:48:01;12.50;99.90
17172;DHT22;8701;50.150;8.756;2023-04-24T02:52:04;12.40;99.90
17172;DHT22;8701;50.150;8.756;2023-04-24T02:56:06;12.30;99.90
17172;DHT22;8701;50.150;8.756;2023-04-24T03:00:11;12.30;99.90
17172;DHT22;8701;50.150;8.756;2023-04-24T03:04:14;12.30;99.90
17172;DHT22;8701;50.150;8.756;2023-04-24T03:08:16;12.20;99.90
17172;DHT22;8701;50.150;8.756;2023-04-24T03:12:18;12.30;99.90
17172;DHT22;8701;50.150;8.756;2023-04-24T03:16:22;12.20;99.90
17172;DHT22;8701;50.150;8.756;2023-04-24T03:20:24;12.30;99.90
17172;DHT22;8701;50.150;8.756;2023-04-24T03:24:28;12.30;99.90
17172;DHT22;8701;50.150;8.756;2023-04-24T03:28:32;12.30;99.90
17172;DHT22;8701;50.150;8.756;2023-04-24T03:32:39;12.30;99.90
17172;DHT22;8701;50.150;8.756;2023-04-24T03:36:43;12.30;99.90
17172;DHT22;8701;50.150;8.756;2023-04-24T03:40:48;12.30;99.90
17172;DHT22;8701;50.150;8.756;2023-04-24T03:45:09;12.30;99.90
17172;DHT22;8701;50.150;8.756;2023-04-24T03:49:15;12.20;99.90
17172;DHT22;8701;50.150;8.756;2023-04-24T03:53:20;12.20;99.90
17172;DHT22;8701;50.150;8.756;2023-04-24T03:57:23;12.20;99.90
17172;DHT22;8701;50.150;8.756;2023-04-24T04:01:37;12.20;99.90
17172;DHT22;8701;50.150;8.756;2023-04-24T04:05:47;12.30;99.90
17172;DHT22;8701;50.150;8.756;2023-04-24T04:09:50;12.30;99.90
17172;DHT22;8701;50.150;8.756;2023-04-24T04:13:52;12.30;99.90
17172;DHT22;8701;50.150;8.756;2023-04-24T04:17:56;12.20;99.90
17172;DHT22;8701;50.150;8.756;2023-04-24T04:22:00;12.20;99.90
17172;DHT22;8701;50.150;8.756;2023-04-24T04:26:12;12.30;99.90
17172;DHT22;8701;50.150;8.756;2023-04-24T04:30:27;12.20;99.90
17172;DHT22;8701;50.150;8.756;2023-04-24T04:34:36;12.10;99.90
17172;DHT22;8701;50.150;8.756;2023-04-24T04:38:43;12.10;99.90
17172;DHT22;8701;50.150;8.756;2023-04-24T04:43:08;12.00;99.90
17172;DHT22;8701;50.150;8.756;2023-04-24T04:47:18;11.90;99.90
17172;DHT22;8701;50.150;8.756;2023-04-24T04:51:22;11.90;99.90
17172;DHT22;8701;50.150;8.756;2023-04-24T04:55:26;11.80;99.90
17172;DHT22;8701;50.150;8.756;2023-04-24T04:59:46;11.70;99.90
17172;DHT22;8701;50.150;8.756;2023-04-24T05:03:57;11.60;99.90
17172;DHT22;8701;50.150;8.756;2023-04-24T05:07:59;11.60;99.90
17172;DHT22;8701;50.150;8.756;2023-04-24T05:12:03;11.60;99.90
17172;DHT22;8701;50.150;8.756;2023-04-24T05:16:10;11.50;99.90
17172;DHT22;8701;50.150;8.756;2023-04-24T05:20:13;11.60;99.90
17172;DHT22;8701;50.150;8.756;2023-04-24T05:24:16;11.50;99.90
17172;DHT22;8701;50.150;8.756;2023-04-24T05:28:36;11.50;99.90
17172;DHT22;8701;50.150;8.756;2023-04-24T05:32:42;11.60;99.90
17172;DHT22;8701;50.150;8.756;2023-04-24T05:36:45;11.50;99.90
17172;DHT22;8701;50.150;8.756;2023-04-24T05:40:49;11.50;99.90
17172;DHT22;8701;50.150;8.756;2023-04-24T05:44:52;11.40;99.90
17172;DHT22;8701;50.150;8.756;2023-04-24T05:48:55;11.50;99.90
17172;DHT22;8701;50.150;8.756;2023-04-24T05:52:57;11.50;99.90
17172;DHT22;8701;50.150;8.756;2023-04-24T05:57:04;11.60;99.90
17172;DHT22;8701;50.150;8.756;2023-04-24T06:01:24;11.70;99.90
17172;DHT22;8701;50.150;8.756;2023-04-24T06:05:36;11.70;99.90
17172;DHT22;8701;50.150;8.756;2023-04-24T06:09:39;11.90;99.90
17172;DHT22;8701;50.150;8.756;2023-04-24T06:13:42;11.90;99.90
17172;DHT22;8701;50.150;8.756;2023-04-24T06:18:04;12.00;99.90
17172;DHT22;8701;50.150;8.756;2023-04-24T06:22:07;12.10;99.90
17172;DHT22;8701;50.150;8.756;2023-04-24T06:26:09;11.90;99.90
17172;DHT22;8701;50.150;8.756;2023-04-24T06:30:13;11.90;99.90
17172;DHT22;8701;50.150;8.756;2023-04-24T06:34:17;11.80;99.90
17172;DHT22;8701;50.150;8.756;2023-04-24T06:38:19;11.80;99.90
17172;DHT22;8701;50.150;8.756;2023-04-24T06:42:21;11.80;99.90
17172;DHT22;8701;50.150;8.756;2023-04-24T06:46:25;11.90;99.90
17172;DHT22;8701;50.150;8.756;2023-04-24T06:50:29;11.90;99.90
17172;DHT22;8701;50.150;8.756;2023-04-24T06:54:32;11.90;99.90
17172;DHT22;8701;50.150;8.756;2023-04-24T06:58:34;11.90;99.90
17172;DHT22;8701;50.150;8.756;2023-04-24T07:02:36;12.00;99.90
17172;DHT22;8701;50.150;8.756;2023-04-24T07:06:40;12.10;99.90
17172;DHT22;8701;50.150;8.756;2023-04-24T07:10:43;12.10;99.90
17172;DHT22;8701;50.150;8.756;2023-04-24T07:14:45;12.10;99.90
17172;DHT22;8701;50.150;8.756;2023-04-24T07:18:47;12.10;99.90
17172;DHT22;8701;50.150;8.756;2023-04-24T07:22:50;12.20;99.90
17172;DHT22;8701;50.150;8.756;2023-04-24T07:26:54;12.20;99.90
17172;DHT22;8701;50.150;8.756;2023-04-24T07:30:57;12.40;99.90
17172;DHT22;8701;50.150;8.756;2023-04-24T07:35:00;12.60;99.90
17172;DHT22;8701;50.150;8.756;2023-04-24T07:39:04;12.60;99.90
17172;DHT22;8701;50.150;8.756;2023-04-24T07:43:06;12.70;99.90
17172;DHT22;8701;50.150;8.756;2023-04-24T07:47:09;12.90;99.90
17172;DHT22;8701;50.150;8.756;2023-04-24T07:51:11;12.90;99.90
17172;DHT22;8701;50.150;8.756;2023-04-24T07:55:15;13.30;99.90
17172;DHT22;8701;50.150;8.756;2023-04-24T07:59:17;14.20;99.90
17172;DHT22;8701;50.150;8.756;2023-04-24T08:03:20;16.30;99.90
17172;DHT22;8701;50.150;8.756;2023-04-24T08:07:23;16.20;99.90
17172;DHT22;8701;50.150;8.756;2023-04-24T08:11:27;16.40;99.90
17172;DHT22;8701;50.150;8.756;2023-04-24T08:15:29;16.80;99.90
17172;DHT22;8701;50.150;8.756;2023-04-24T08:19:31;16.80;99.90
17172;DHT22;8701;50.150;8.756;2023-04-24T08:23:33;18.10;99.90
17172;DHT22;8701;50.150;8.756;2023-04-24T08:27:37;19.60;99.90
17172;DHT22;8701;50.150;8.756;2023-04-24T08:31:39;20.50;99.90
17172;DHT22;8701;50.150;8.756;2023-04-24T08:35:41;19.40;99.90
17172;DHT22;8701;50.150;8.756;2023-04-24T08:39:44;20.30;99.90
17172;DHT22;8701;50.150;8.756;2023-04-24T08:43:48;21.10;99.90
17172;DHT22;8701;50.150;8.756;2023-04-24T08:47:52;21.10;98.30
17172;DHT22;8701;50.150;8.756;2023-04-24T08:51:54;21.00;98.80
17172;DHT22;8701;50.150;8.756;2023-04-24T08:55:56;21.40;97.30
17172;DHT22;8701;50.150;8.756;2023-04-24T09:00:00;20.20;96.90
17172;DHT22;8701;50.150;8.756;2023-04-24T09:04:03;18.30;99.50
17172;DHT22;8701;50.150;8.756;2023-04-24T09:08:06;17.60;99.90
17172;DHT22;8701;50.150;8.756;2023-04-24T09:12:11;16.80;99.90
17172;DHT22;8701;50.150;8.756;2023-04-24T09:16:15;15.60;99.90
17172;DHT22;8701;50.150;8.756;2023-04-24T09:20:18;14.90;99.90
17172;DHT22;8701;50.150;8.756;2023-04-24T09:24:21;14.80;99.90
17172;DHT22;8701;50.150;8.756;2023-04-24T09:28:29;14.30;99.90
17172;DHT22;8701;50.150;8.756;2023-04-24T09:32:34;14.20;99.90
17172;DHT22;8701;50.150;8.756;2023-04-24T09:36:37;14.30;99.90
17172;DHT22;8701;50.150;8.756;2023-04-24T09:40:39;14.50;99.90
17172;DHT22;8701;50.150;8.756;2023-04-24T09:44:42;14.50;99.90
17172;DHT22;8701;50.150;8.756;2023-04-24T09:48:46;14.40;99.90
17172;DHT22;8701;50.150;8.756;2023-04-24T09:52:57;14.10;99.90
17172;DHT22;8701;50.150;8.756;2023-04-24T09:56:59;14.00;99.90
17172;DHT22;8701;50.150;8.756;2023-04-24T10:01:02;13.70;99.90
17172;DHT22;8701;50.150;8.756;2023-04-24T10:05:07;13.70;99.90
17172;DHT22;8701;50.150;8.756;2023-04-24T10:09:13;13.80;99.90
17172;DHT22;8701;50.150;8.756;2023-04-24T10:13:15;13.50;99.90
17172;DHT22;8701;50.150;8.756;2023-04-24T10:17:18;13.50;99.90
17172;DHT22;8701;50.150;8.756;2023-04-24T10:21:23;13.50;99.90
17172;DHT22;8701;50.150;8.756;2023-04-24T10:25:27;13.60;99.90
17172;DHT22;8701;50.150;8.756;2023-04-24T10:29:31;13.50;99.90
17172;DHT22;8701;50.150;8.756;2023-04-24T10:33:35;13.40;99.90
17172;DHT22;8701;50.150;8.756;2023-04-24T10:37:43;13.30;99.90
17172;DHT22;8701;50.150;8.756;2023-04-24T10:41:46;13.40;99.90
17172;DHT22;8701;50.150;8.756;2023-04-24T10:46:01;13.30;99.90
17172;DHT22;8701;50.150;8.756;2023-04-24T10:50:08;13.30;99.90
17172;DHT22;8701;50.150;8.756;2023-04-24T10:54:23;13.30;99.90
17172;DHT22;8701;50.150;8.756;2023-04-24T10:58:36;13.10;99.90
17172;DHT22;8701;50.150;8.756;2023-04-24T11:02:40;12.80;99.90
17172;DHT22;8701;50.150;8.756;2023-04-24T11:06:49;13.00;99.90
17172;DHT22;8701;50.150;8.756;2023-04-24T11:10:57;13.00;99.90
17172;DHT22;8701;50.150;8.756;2023-04-24T11:15:01;13.70;99.90
17172;DHT22;8701;50.150;8.756;2023-04-24T11:19:05;14.40;99.90
17172;DHT22;8701;50.150;8.756;2023-04-24T11:23:08;14.90;99.90
17172;DHT22;8701;50.150;8.756;2023-04-24T11:27:14;15.10;99.90
17172;DHT22;8701;50.150;8.756;2023-04-24T11:31:37;14.80;99.90
17172;DHT22;8701;50.150;8.756;2023-04-24T11:35:40;14.80;99.90
17172;DHT22;8701;50.150;8.756;2023-04-24T11:39:42;14.70;99.90
17172;DHT22;8701;50.150;8.756;2023-04-24T11:43:46;15.10;99.90
17172;DHT22;8701;50.150;8.756;2023-04-24T11:47:50;16.40;99.90
17172;DHT22;8701;50.150;8.756;2023-04-24T11:51:55;17.10;99.90
17172;DHT22;8701;50.150;8.756;2023-04-24T11:56:02;17.10;99.90
17172;DHT22;8701;50.150;8.756;2023-04-24T12:00:07;16.90;99.90
17172;DHT22;8701;50.150;8.756;2023-04-24T12:04:14;16.30;99.90
17172;DHT22;8701;50.150;8.756;2023-04-24T12:08:27;15.90;99.90
17172;DHT22;8701;50.150;8.756;2023-04-24T12:12:30;15.30;99.90
17172;DHT22;8701;50.150;8.756;2023-04-24T12:16:33;15.10;99.90
17172;DHT22;8701;50.150;8.756;2023-04-24T12:20:36;15.00;99.90
17172;DHT22;8701;50.150;8.756;2023-04-24T12:25:00;14.80;99.90
17172;DHT22;8701;50.150;8.756;2023-04-24T12:29:03;14.50;99.90
17172;DHT22;8701;50.150;8.756;2023-04-24T12:33:07;14.50;99.90
17172;DHT22;8701;50.150;8.756;2023-04-24T12:37:10;13.80;99.90
17172;DHT22;8701;50.150;8.756;2023-04-24T12:41:13;13.60;99.90
17172;DHT22;8701;50.150;8.756;2023-04-24T12:45:17;13.60;99.90
17172;DHT22;8701;50.150;8.756;2023-04-24T12:49:21;13.90;99.90
17172;DHT22;8701;50.150;8.756;2023-04-24T12:53:23;14.60;99.90
17172;DHT22;8701;50.150;8.756;2023-04-24T12:57:28;15.40;99.90
17172;DHT22;8701;50.150;8.756;2023-04-24T13:01:31;15.20;99.90
17172;DHT22;8701;50.150;8.756;2023-04-24T13:05:34;15.10;99.90
17172;DHT22;8701;50.150;8.756;2023-04-24T13:09:37;15.20;99.90
17172;DHT22;8701;50.150;8.756;2023-04-24T13:13:39;15.10;99.90
17172;DHT22;8701;50.150;8.756;2023-04-24T13:17:41;15.20;99.90
17172;DHT22;8701;50.150;8.756;2023-04-24T13:21:45;15.60;99.90
17172;DHT22;8701;50.150;8.756;2023-04-24T13:25:47;15.80;99.90
17172;DHT22;8701;50.150;8.756;2023-04-24T13:29:50;15.80;99.90
17172;DHT22;8701;50.150;8.756;2023-04-24T13:33:52;15.80;99.90
17172;DHT22;8701;50.150;8.756;2023-04-24T13:37:56;15.60;99.90
17172;DHT22;8701;50.150;8.756;2023-04-24T13:41:58;15.30;99.90
17172;DHT22;8701;50.150;8.756;2023-04-24T13:46:00;14.90;99.90
17172;DHT22;8701;50.150;8.756;2023-04-24T13:50:04;14.50;99.90
17172;DHT22;8701;50.150;8.756;2023-04-24T13:54:08;13.60;99.90
17172;DHT22;8701;50.150;8.756;2023-04-24T13:58:10;13.60;99.90
17172;DHT22;8701;50.150;8.756;2023-04-24T14:02:13;13.80;99.90
17172;DHT22;8701;50.150;8.756;2023-04-24T14:06:15;14.30;99.90
17172;DHT22;8701;50.150;8.756;2023-04-24T14:10:19;14.60;99.90
17172;DHT22;8701;50.150;8.756;2023-04-24T14:14:21;14.60;99.90
17172;DHT22;8701;50.150;8.756;2023-04-24T14:18:23;14.70;99.90
17172;DHT22;8701;50.150;8.756;2023-04-24T14:22:26;15.10;99.90
17172;DHT22;8701;50.150;8.756;2023-04-24T14:26:29;15.40;99.90
17172;DHT22;8701;50.150;8.756;2023-04-24T14:30:31;15.80;99.90
17172;DHT22;8701;50.150;8.756;2023-04-24T14:34:34;16.00;99.90
17172;DHT22;8701;50.150;8.756;2023-04-24T14:38:36;15.80;99.90
17172;DHT22;8701;50.150;8.756;2023-04-24T14:42:40;15.70;99.90
17172;DHT22;8701;50.150;8.756;2023-04-24T14:46:42;15.30;99.90
17172;DHT22;8701;50.150;8.756;2023-04-24T14:50:44;15.00;99.90
17172;DHT22;8701;50.150;8.756;2023-04-24T14:54:47;14.80;99.90
17172;DHT22;8701;50.150;8.756;2023-04-24T14:58:50;14.70;99.90
17172;DHT22;8701;50.150;8.756;2023-04-24T15:02:53;14.50;99.90
17172;DHT22;8701;50.150;8.756;2023-04-24T15:06:56;14.40;99.90
17172;DHT22;8701;50.150;8.756;2023-04-24T15:10:58;14.60;99.90
17172;DHT22;8701;50.150;8.756;2023-04-24T15:15:02;14.70;99.90
17172;DHT22;8701;50.150;8.756;2023-04-24T15:19:04;14.90;99.90
17172;DHT22;8701;50.150;8.756;2023-04-24T15:23:07;15.00;99.90
17172;DHT22;8701;50.150;8.756;2023-04-24T15:27:10;14.80;99.90
17172;DHT22;8701;50.150;8.756;2023-04-24T15:31:14;14.70;99.90
17172;DHT22;8701;50.150;8.756;2023-04-24T15:35:16;14.60;99.90
17172;DHT22;8701;50.150;8.756;2023-04-24T15:39:22;14.60;99.90
17172;DHT22;8701;50.150;8.756;2023-04-24T15:43:24;14.40;99.90
17172;DHT22;8701;50.150;8.756;2023-04-24T15:47:28;14.40;99.90
17172;DHT22;8701;50.150;8.756;2023-04-24T15:51:30;14.30;99.90
17172;DHT22;8701;50.150;8.756;2023-04-24T15:55:33;14.30;99.90
17172;DHT22;8701;50.150;8.756;2023-04-24T15:59:35;14.40;99.90
17172;DHT22;8701;50.150;8.756;2023-04-24T16:03:38;14.30;99.90
17172;DHT22;8701;50.150;8.756;2023-04-24T16:07:41;14.30;99.90
17172;DHT22;8701;50.150;8.756;2023-04-24T16:11:43;14.30;99.90
17172;DHT22;8701;50.150;8.756;2023-04-24T16:15:45;14.30;99.90
17172;DHT22;8701;50.150;8.756;2023-04-24T16:19:49;14.20;99.90
17172;DHT22;8701;50.150;8.756;2023-04-24T16:23:51;14.30;99.90
17172;DHT22;8701;50.150;8.756;2023-04-24T16:27:53;14.40;99.90
17172;DHT22;8701;50.150;8.756;2023-04-24T16:31:56;14.40;99.90
17172;DHT22;8701;50.150;8.756;2023-04-24T16:36:00;14.30;99.90
17172;DHT22;8701;50.150;8.756;2023-04-24T16:40:03;14.30;99.90
17172;DHT22;8701;50.150;8.756;2023-04-24T16:44:10;14.30;99.90
17172;DHT22;8701;50.150;8.756;2023-04-24T16:48:13;14.20;99.90
17172;DHT22;8701;50.150;8.756;2023-04-24T16:52:17;14.10;99.90
17172;DHT22;8701;50.150;8.756;2023-04-24T16:56:19;14.10;99.90
17172;DHT22;8701;50.150;8.756;2023-04-24T17:00:21;14.10;99.90
17172;DHT22;8701;50.150;8.756;2023-04-24T17:04:24;14.10;99.90
17172;DHT22;8701;50.150;8.756;2023-04-24T17:08:27;14.00;99.90
17172;DHT22;8701;50.150;8.756;2023-04-24T17:12:30;14.00;99.90
17172;DHT22;8701;50.150;8.756;2023-04-24T17:16:32;13.90;99.90
17172;DHT22;8701;50.150;8.756;2023-04-24T17:20:35;13.80;99.90
17172;DHT22;8701;50.150;8.756;2023-04-24T17:24:38;13.80;99.90
17172;DHT22;8701;50.150;8.756;2023-04-24T17:28:40;13.80;99.90
17172;DHT22;8701;50.150;8.756;2023-04-24T17:32:43;13.80;99.90
17172;DHT22;8701;50.150;8.756;2023-04-24T17:36:45;13.70;99.90
17172;DHT22;8701;50.150;8.756;2023-04-24T17:40:48;13.70;99.90
17172;DHT22;8701;50.150;8.756;2023-04-24T17:44:52;13.70;99.90
17172;DHT22;8701;50.150;8.756;2023-04-24T17:48:55;13.60;99.90
17172;DHT22;8701;50.150;8.756;2023-04-24T17:52:57;13.60;99.90
17172;DHT22;8701;50.150;8.756;2023-04-24T17:57:00;13.50;99.90
17172;DHT22;8701;50.150;8.756;2023-04-24T18:01:02;13.40;99.90
17172;DHT22;8701;50.150;8.756;2023-04-24T18:05:05;13.40;99.90
17172;DHT22;8701;50.150;8.756;2023-04-24T18:09:07;13.40;99.90
17172;DHT22;8701;50.150;8.756;2023-04-24T18:13:11;13.40;99.90
17172;DHT22;8701;50.150;8.756;2023-04-24T18:17:13;13.30;99.90
17172;DHT22;8701;50.150;8.756;2023-04-24T18:21:15;13.30;99.90
17172;DHT22;8701;50.150;8.756;2023-04-24T18:25:17;13.30;99.90
17172;DHT22;8701;50.150;8.756;2023-04-24T18:29:27;13.20;99.90
17172;DHT22;8701;50.150;8.756;2023-04-24T18:33:29;13.10;99.90
17172;DHT22;8701;50.150;8.756;2023-04-24T18:37:32;12.90;99.90
17172;DHT22;8701;50.150;8.756;2023-04-24T18:41:34;12.70;99.90
17172;DHT22;8701;50.150;8.756;2023-04-24T18:45:38;12.60;99.90
17172;DHT22;8701;50.150;8.756;2023-04-24T18:49:40;12.60;99.90
17172;DHT22;8701;50.150;8.756;2023-04-24T18:53:42;12.60;99.90
17172;DHT22;8701;50.150;8.756;2023-04-24T18:57:44;12.60;99.90
17172;DHT22;8701;50.150;8.756;2023-04-24T19:01:48;12.70;99.90
17172;DHT22;8701;50.150;8.756;2023-04-24T19:05:50;12.60;99.90
17172;DHT22;8701;50.150;8.756;2023-04-24T19:09:52;12.70;99.90
17172;DHT22;8701;50.150;8.756;2023-04-24T19:13:54;12.50;99.90
17172;DHT22;8701;50.150;8.756;2023-04-24T19:18:00;12.40;99.90
17172;DHT22;8701;50.150;8.756;2023-04-24T19:22:02;12.20;99.90
17172;DHT22;8701;50.150;8.756;2023-04-24T19:26:05;12.10;99.90
17172;DHT22;8701;50.150;8.756;2023-04-24T19:30:08;12.00;99.90
17172;DHT22;8701;50.150;8.756;2023-04-24T19:34:12;11.80;99.90
17172;DHT22;8701;50.150;8.756;2023-04-24T19:38:14;11.80;99.90
17172;DHT22;8701;50.150;8.756;2023-04-24T19:42:16;11.90;99.90
17172;DHT22;8701;50.150;8.756;2023-04-24T19:46:18;11.90;99.90
17172;DHT22;8701;50.150;8.756;2023-04-24T19:50:22;11.80;99.90
17172;DHT22;8701;50.150;8.756;2023-04-24T19:54:24;11.80;99.90
17172;DHT22;8701;50.150;8.756;2023-04-24T19:58:27;11.70;99.90
17172;DHT22;8701;50.150;8.756;2023-04-24T20:02:30;11.70;99.90
17172;DHT22;8701;50.150;8.756;2023-04-24T20:06:34;11.60;99.90
17172;DHT22;8701;50.150;8.756;2023-04-24T20:10:36;11.60;99.90
17172;DHT22;8701;50.150;8.756;2023-04-24T20:14:39;11.70;99.90
17172;DHT22;8701;50.150;8.756;2023-04-24T20:18:41;11.50;99.90
17172;DHT22;8701;50.150;8.756;2023-04-24T20:22:45;11.50;99.90
17172;DHT22;8701;50.150;8.756;2023-04-24T20:26:48;11.40;99.90
17172;DHT22;8701;50.150;8.756;2023-04-24T20:30:50;11.30;99.90
17172;DHT22;8701;50.150;8.756;2023-04-24T20:34:52;11.30;99.90
17172;DHT22;8701;50.150;8.756;2023-04-24T20:38:56;11.30;99.90
17172;DHT22;8701;50.150;8.756;2023-04-24T20:42:59;11.40;99.90
17172;DHT22;8701;50.150;8.756;2023-04-24T20:47:04;11.40;99.90
17172;DHT22;8701;50.150;8.756;2023-04-24T20:51:07;11.50;99.90
17172;DHT22;8701;50.150;8.756;2023-04-24T20:55:10;11.30;99.90
17172;DHT22;8701;50.150;8.756;2023-04-24T20:59:12;11.30;99.90
17172;DHT22;8701;50.150;8.756;2023-04-24T21:03:15;11.30;99.90
17172;DHT22;8701;50.150;8.756;2023-04-24T21:07:17;11.30;99.90
17172;DHT22;8701;50.150;8.756;2023-04-24T21:11:21;11.30;99.90
17172;DHT22;8701;50.150;8.756;2023-04-24T21:15:23;11.30;99.90
17172;DHT22;8701;50.150;8.756;2023-04-24T21:19:25;11.40;99.90
17172;DHT22;8701;50.150;8.756;2023-04-24T21:23:27;11.40;99.90
17172;DHT22;8701;50.150;8.756;2023-04-24T21:27:31;11.40;99.90
17172;DHT22;8701;50.150;8.756;2023-04-24T21:31:33;11.40;99.90
17172;DHT22;8701;50.150;8.756;2023-04-24T21:35:35;11.30;99.90
17172;DHT22;8701;50.150;8.756;2023-04-24T21:39:38;11.30;99.90
17172;DHT22;8701;50.150;8.756;2023-04-24T21:43:43;11.30;99.90
17172;DHT22;8701;50.150;8.756;2023-04-24T21:47:45;11.30;99.90
17172;DHT22;8701;50.150;8.756;2023-04-24T21:51:47;11.30;99.90
17172;DHT22;8701;50.150;8.756;2023-04-24T21:55:49;11.30;99.90
17172;DHT22;8701;50.150;8.756;2023-04-24T21:59:53;11.30;99.90
17172;DHT22;8701;50.150;8.756;2023-04-24T22:03:55;11.30;99.90
17172;DHT22;8701;50.150;8.756;2023-04-24T22:07:57;11.20;99.90
17172;DHT22;8701;50.150;8.756;2023-04-24T22:12:00;11.30;99.90
17172;DHT22;8701;50.150;8.756;2023-04-24T22:16:04;11.20;99.90
17172;DHT22;8701;50.150;8.756;2023-04-24T22:20:06;11.10;99.90
17172;DHT22;8701;50.150;8.756;2023-04-24T22:24:09;11.20;99.90
17172;DHT22;8701;50.150;8.756;2023-04-24T22:28:11;11.30;99.90
17172;DHT22;8701;50.150;8.756;2023-04-24T22:32:14;11.20;99.90
17172;DHT22;8701;50.150;8.756;2023-04-24T22:36:17;11.20;99.90
17172;DHT22;8701;50.150;8.756;2023-04-24T22:40:19;11.10;99.90
17172;DHT22;8701;50.150;8.756;2023-04-24T22:44:22;11.10;99.90
17172;DHT22;8701;50.150;8.756;2023-04-24T22:48:25;11.10;99.90
17172;DHT22;8701;50.150;8.756;2023-04-24T22:52:28;11.10;99.90
17172;DHT22;8701;50.150;8.756;2023-04-24T22:56:30;11.00;99.90
17172;DHT22;8701;50.150;8.756;2023-04-24T23:00:32;11.00;99.90
17172;DHT22;8701;50.150;8.756;2023-04-24T23:04:36;11.00;99.90
17172;DHT22;8701;50.150;8.756;2023-04-24T23:08:38;11.00;99.90
17172;DHT22;8701;50.150;8.756;2023-04-24T23:12:40;10.90;99.90
17172;DHT22;8701;50.150;8.756;2023-04-24T23:16:43;10.80;99.90
17172;DHT22;8701;50.150;8.756;2023-04-24T23:20:47;10.80;99.90
17172;DHT22;8701;50.150;8.756;2023-04-24T23:24:49;10.80;99.90
17172;DHT22;8701;50.150;8.756;2023-04-24T23:28:51;10.80;99.90
17172;DHT22;8701;50.150;8.756;2023-04-24T23:32:54;10.70;99.90
17172;DHT22;8701;50.150;8.756;2023-04-24T23:36:57;10.70;99.90
17172;DHT22;8701;50.150;8.756;2023-04-24T23:41:00;10.60;99.90
17172;DHT22;8701;50.150;8.756;2023-04-24T23:45:02;10.60;99.90
17172;DHT22;8701;50.150;8.756;2023-04-24T23:49:04;10.60;99.90
17172;DHT22;8701;50.150;8.756;2023-04-24T23:53:08;10.60;99.90
17172;DHT22;8701;50.150;8.756;2023-04-24T23:57:11;10.60;99.90
